sensor_id;sensor_type;location;lat;lon;timestamp;P1;durP1;ratioP1;P2;durP2;ratioP2
64932;SDS011;51446;53.850;10.662;2023-11-21T00:02:11;16.20;;;9.23;;
64932;SDS011;51446;53.850;10.662;2023-11-21T00:04:36;18.67;;;8.87;;
64932;SDS011;51446;53.850;10.662;2023-11-21T00:07:02;15.53;;;8.43;;
64932;SDS011;51446;53.850;10.662;2023-11-21T00:09:28;12.43;;;8.23;;
64932;SDS011;51446;53.850;10.662;2023-11-21T00:11:53;15.60;;;8.77;;
64932;SDS011;51446;53.850;10.662;2023-11-21T00:14:18;12.90;;;8.20;;
64932;SDS011;51446;53.850;10.662;2023-11-21T00:16:43;14.40;;;7.80;;
64932;SDS011;51446;53.850;10.662;2023-11-21T00:19:09;11.53;;;7.70;;
64932;SDS011;51446;53.850;10.662;2023-11-21T00:21:34;13.97;;;7.80;;
64932;SDS011;51446;53.850;10.662;2023-11-21T00:23:59;11.10;;;7.30;;
64932;SDS011;51446;53.850;10.662;2023-11-21T00:26:24;11.47;;;7.30;;
64932;SDS011;51446;53.850;10.662;2023-11-21T00:28:50;10.17;;;6.67;;
64932;SDS011;51446;53.850;10.662;2023-11-21T00:31:15;13.73;;;7.00;;
64932;SDS011;51446;53.850;10.662;2023-11-21T00:33:41;11.25;;;7.35;;
64932;SDS011;51446;53.850;10.662;2023-11-21T00:36:07;15.13;;;7.33;;
64932;SDS011;51446;53.850;10.662;2023-11-21T00:38:34;11.95;;;7.00;;
64932;SDS011;51446;53.850;10.662;2023-11-21T00:41:00;12.88;;;7.70;;
64932;SDS011;51446;53.850;10.662;2023-11-21T00:43:25;13.50;;;6.90;;
64932;SDS011;51446;53.850;10.662;2023-11-21T00:45:50;11.23;;;8.05;;
64932;SDS011;51446;53.850;10.662;2023-11-21T00:48:16;11.80;;;7.20;;
64932;SDS011;51446;53.850;10.662;2023-11-21T00:50:41;11.02;;;7.15;;
64932;SDS011;51446;53.850;10.662;2023-11-21T00:53:07;10.40;;;7.30;;
64932;SDS011;51446;53.850;10.662;2023-11-21T00:55:32;13.37;;;8.33;;
64932;SDS011;51446;53.850;10.662;2023-11-21T00:57:58;14.90;;;7.03;;
64932;SDS011;51446;53.850;10.662;2023-11-21T01:00:23;12.43;;;7.68;;
64932;SDS011;51446;53.850;10.662;2023-11-21T01:02:48;9.80;;;6.57;;
64932;SDS011;51446;53.850;10.662;2023-11-21T01:05:14;12.77;;;7.77;;
64932;SDS011;51446;53.850;10.662;2023-11-21T01:07:39;12.43;;;7.47;;
64932;SDS011;51446;53.850;10.662;2023-11-21T01:10:04;11.20;;;7.17;;
64932;SDS011;51446;53.850;10.662;2023-11-21T01:12:32;9.88;;;6.80;;
64932;SDS011;51446;53.850;10.662;2023-11-21T01:14:59;9.97;;;6.90;;
64932;SDS011;51446;53.850;10.662;2023-11-21T01:17:25;9.60;;;6.63;;
64932;SDS011;51446;53.850;10.662;2023-11-21T01:19:51;10.70;;;7.05;;
64932;SDS011;51446;53.850;10.662;2023-11-21T01:22:16;10.65;;;6.43;;
64932;SDS011;51446;53.850;10.662;2023-11-21T01:24:42;12.20;;;5.87;;
64932;SDS011;51446;53.850;10.662;2023-11-21T01:27:08;11.77;;;6.35;;
64932;SDS011;51446;53.850;10.662;2023-11-21T01:29:33;8.50;;;6.23;;
64932;SDS011;51446;53.850;10.662;2023-11-21T01:32:00;8.80;;;6.25;;
64932;SDS011;51446;53.850;10.662;2023-11-21T01:34:25;9.70;;;6.57;;
64932;SDS011;51446;53.850;10.662;2023-11-21T01:36:50;11.67;;;6.60;;
64932;SDS011;51446;53.850;10.662;2023-11-21T01:39:16;9.40;;;6.50;;
64932;SDS011;51446;53.850;10.662;2023-11-21T01:41:48;11.52;;;6.22;;
64932;SDS011;51446;53.850;10.662;2023-11-21T01:44:13;10.57;;;6.27;;
64932;SDS011;51446;53.850;10.662;2023-11-21T01:46:38;9.50;;;6.67;;
64932;SDS011;51446;53.850;10.662;2023-11-21T01:49:04;8.53;;;6.30;;
64932;SDS011;51446;53.850;10.662;2023-11-21T01:51:30;8.88;;;6.53;;
64932;SDS011;51446;53.850;10.662;2023-11-21T01:53:56;8.40;;;6.63;;
64932;SDS011;51446;53.850;10.662;2023-11-21T01:56:21;8.80;;;6.05;;
64932;SDS011;51446;53.850;10.662;2023-11-21T01:58:46;10.03;;;6.37;;
64932;SDS011;51446;53.850;10.662;2023-11-21T02:01:12;9.03;;;6.20;;
64932;SDS011;51446;53.850;10.662;2023-11-21T02:03:37;8.13;;;5.73;;
64932;SDS011;51446;53.850;10.662;2023-11-21T02:06:03;8.80;;;6.10;;
64932;SDS011;51446;53.850;10.662;2023-11-21T02:08:28;7.65;;;5.38;;
64932;SDS011;51446;53.850;10.662;2023-11-21T02:10:53;9.20;;;6.20;;
64932;SDS011;51446;53.850;10.662;2023-11-21T02:13:19;10.27;;;6.20;;
64932;SDS011;51446;53.850;10.662;2023-11-21T02:15:44;9.03;;;5.97;;
64932;SDS011;51446;53.850;10.662;2023-11-21T02:18:09;7.57;;;5.20;;
64932;SDS011;51446;53.850;10.662;2023-11-21T02:20:36;9.47;;;6.10;;
64932;SDS011;51446;53.850;10.662;2023-11-21T02:23:03;9.82;;;6.10;;
64932;SDS011;51446;53.850;10.662;2023-11-21T02:25:30;9.63;;;5.88;;
64932;SDS011;51446;53.850;10.662;2023-11-21T02:27:57;7.50;;;5.18;;
64932;SDS011;51446;53.850;10.662;2023-11-21T02:30:23;8.25;;;5.75;;
64932;SDS011;51446;53.850;10.662;2023-11-21T02:32:58;8.50;;;5.87;;
64932;SDS011;51446;53.850;10.662;2023-11-21T02:35:24;7.60;;;5.88;;
64932;SDS011;51446;53.850;10.662;2023-11-21T02:37:53;9.63;;;6.00;;
64932;SDS011;51446;53.850;10.662;2023-11-21T02:40:19;6.50;;;5.55;;
64932;SDS011;51446;53.850;10.662;2023-11-21T02:42:46;7.53;;;5.03;;
64932;SDS011;51446;53.850;10.662;2023-11-21T02:45:12;8.98;;;5.80;;
64932;SDS011;51446;53.850;10.662;2023-11-21T02:47:39;7.82;;;5.68;;
64932;SDS011;51446;53.850;10.662;2023-11-21T02:50:04;7.37;;;5.73;;
64932;SDS011;51446;53.850;10.662;2023-11-21T02:52:32;7.90;;;6.00;;
64932;SDS011;51446;53.850;10.662;2023-11-21T02:54:58;9.67;;;5.83;;
64932;SDS011;51446;53.850;10.662;2023-11-21T02:57:23;9.63;;;6.07;;
64932;SDS011;51446;53.850;10.662;2023-11-21T02:59:48;7.78;;;5.90;;
64932;SDS011;51446;53.850;10.662;2023-11-21T03:02:14;12.30;;;6.30;;
64932;SDS011;51446;53.850;10.662;2023-11-21T03:04:40;9.60;;;6.70;;
64932;SDS011;51446;53.850;10.662;2023-11-21T03:07:05;8.53;;;6.03;;
64932;SDS011;51446;53.850;10.662;2023-11-21T03:09:31;8.80;;;6.20;;
64932;SDS011;51446;53.850;10.662;2023-11-21T03:11:56;10.83;;;6.63;;
64932;SDS011;51446;53.850;10.662;2023-11-21T03:14:21;9.13;;;6.80;;
64932;SDS011;51446;53.850;10.662;2023-11-21T03:16:47;11.47;;;6.50;;
64932;SDS011;51446;53.850;10.662;2023-11-21T03:19:14;8.75;;;6.35;;
64932;SDS011;51446;53.850;10.662;2023-11-21T03:21:40;10.82;;;6.90;;
64932;SDS011;51446;53.850;10.662;2023-11-21T03:24:05;12.20;;;7.37;;
64932;SDS011;51446;53.850;10.662;2023-11-21T03:26:32;11.80;;;6.97;;
64932;SDS011;51446;53.850;10.662;2023-11-21T03:28:57;9.75;;;6.60;;
64932;SDS011;51446;53.850;10.662;2023-11-21T03:31:22;10.50;;;7.13;;
64932;SDS011;51446;53.850;10.662;2023-11-21T03:33:48;13.95;;;6.88;;
64932;SDS011;51446;53.850;10.662;2023-11-21T03:36:13;9.90;;;6.53;;
64932;SDS011;51446;53.850;10.662;2023-11-21T03:38:40;9.43;;;7.00;;
64932;SDS011;51446;53.850;10.662;2023-11-21T03:41:06;8.73;;;6.35;;
64932;SDS011;51446;53.850;10.662;2023-11-21T03:43:32;10.82;;;6.10;;
64932;SDS011;51446;53.850;10.662;2023-11-21T03:45:57;10.17;;;6.53;;
64932;SDS011;51446;53.850;10.662;2023-11-21T03:48:22;10.17;;;6.77;;
64932;SDS011;51446;53.850;10.662;2023-11-21T03:50:47;9.50;;;6.63;;
64932;SDS011;51446;53.850;10.662;2023-11-21T03:53:13;9.90;;;6.50;;
64932;SDS011;51446;53.850;10.662;2023-11-21T03:55:39;10.00;;;6.50;;
64932;SDS011;51446;53.850;10.662;2023-11-21T03:58:04;11.75;;;7.13;;
64932;SDS011;51446;53.850;10.662;2023-11-21T04:00:29;13.30;;;6.65;;
64932;SDS011;51446;53.850;10.662;2023-11-21T04:02:54;9.47;;;6.53;;
64932;SDS011;51446;53.850;10.662;2023-11-21T04:05:20;9.00;;;6.20;;
64932;SDS011;51446;53.850;10.662;2023-11-21T04:07:49;8.37;;;5.60;;
64932;SDS011;51446;53.850;10.662;2023-11-21T04:10:16;10.23;;;6.15;;
64932;SDS011;51446;53.850;10.662;2023-11-21T04:12:41;11.40;;;6.20;;
64932;SDS011;51446;53.850;10.662;2023-11-21T04:15:07;8.20;;;6.20;;
64932;SDS011;51446;53.850;10.662;2023-11-21T04:17:33;7.60;;;5.90;;
64932;SDS011;51446;53.850;10.662;2023-11-21T04:19:59;9.20;;;6.27;;
64932;SDS011;51446;53.850;10.662;2023-11-21T04:22:24;9.67;;;6.50;;
64932;SDS011;51446;53.850;10.662;2023-11-21T04:24:50;7.60;;;5.73;;
64932;SDS011;51446;53.850;10.662;2023-11-21T04:27:15;9.68;;;6.50;;
64932;SDS011;51446;53.850;10.662;2023-11-21T04:29:42;13.48;;;6.15;;
64932;SDS011;51446;53.850;10.662;2023-11-21T04:32:08;9.77;;;6.57;;
64932;SDS011;51446;53.850;10.662;2023-11-21T04:34:33;9.37;;;6.20;;
64932;SDS011;51446;53.850;10.662;2023-11-21T04:36:59;9.13;;;6.15;;
64932;SDS011;51446;53.850;10.662;2023-11-21T04:39:25;8.73;;;6.17;;
64932;SDS011;51446;53.850;10.662;2023-11-21T04:41:50;9.27;;;6.30;;
64932;SDS011;51446;53.850;10.662;2023-11-21T04:44:15;12.00;;;5.77;;
64932;SDS011;51446;53.850;10.662;2023-11-21T04:46:41;9.88;;;5.80;;
64932;SDS011;51446;53.850;10.662;2023-11-21T04:49:07;8.23;;;6.00;;
64932;SDS011;51446;53.850;10.662;2023-11-21T04:51:32;12.33;;;6.27;;
64932;SDS011;51446;53.850;10.662;2023-11-21T04:53:58;10.97;;;5.27;;
64932;SDS011;51446;53.850;10.662;2023-11-21T04:56:23;10.83;;;5.63;;
64932;SDS011;51446;53.850;10.662;2023-11-21T04:58:48;9.10;;;5.47;;
64932;SDS011;51446;53.850;10.662;2023-11-21T05:01:13;6.90;;;5.20;;
64932;SDS011;51446;53.850;10.662;2023-11-21T05:03:39;7.50;;;4.90;;
64932;SDS011;51446;53.850;10.662;2023-11-21T05:06:04;7.13;;;5.32;;
64932;SDS011;51446;53.850;10.662;2023-11-21T05:08:30;7.90;;;5.13;;
64932;SDS011;51446;53.850;10.662;2023-11-21T05:10:55;6.37;;;5.10;;
64932;SDS011;51446;53.850;10.662;2023-11-21T05:13:20;6.80;;;5.00;;
64932;SDS011;51446;53.850;10.662;2023-11-21T05:15:46;6.37;;;5.20;;
64932;SDS011;51446;53.850;10.662;2023-11-21T05:18:11;7.88;;;5.05;;
64932;SDS011;51446;53.850;10.662;2023-11-21T05:20:38;6.13;;;4.70;;
64932;SDS011;51446;53.850;10.662;2023-11-21T05:23:04;7.68;;;4.72;;
64932;SDS011;51446;53.850;10.662;2023-11-21T05:25:29;6.00;;;4.07;;
64932;SDS011;51446;53.850;10.662;2023-11-21T05:27:55;5.23;;;4.17;;
64932;SDS011;51446;53.850;10.662;2023-11-21T05:30:20;6.07;;;4.40;;
64932;SDS011;51446;53.850;10.662;2023-11-21T05:32:46;6.10;;;4.05;;
64932;SDS011;51446;53.850;10.662;2023-11-21T05:35:11;6.40;;;4.07;;
64932;SDS011;51446;53.850;10.662;2023-11-21T05:37:40;5.72;;;4.25;;
64932;SDS011;51446;53.850;10.662;2023-11-21T05:40:06;7.17;;;4.10;;
64932;SDS011;51446;53.850;10.662;2023-11-21T05:42:32;5.88;;;4.28;;
64932;SDS011;51446;53.850;10.662;2023-11-21T05:44:58;5.03;;;4.05;;
64932;SDS011;51446;53.850;10.662;2023-11-21T05:47:36;4.90;;;4.30;;
64932;SDS011;51446;53.850;10.662;2023-11-21T05:50:20;4.80;;;4.10;;
64932;SDS011;51446;53.850;10.662;2023-11-21T05:52:46;6.87;;;4.37;;
64932;SDS011;51446;53.850;10.662;2023-11-21T05:55:12;6.38;;;4.50;;
64932;SDS011;51446;53.850;10.662;2023-11-21T05:57:38;4.57;;;4.00;;
64932;SDS011;51446;53.850;10.662;2023-11-21T06:02:41;5.30;;;4.15;;
64932;SDS011;51446;53.850;10.662;2023-11-21T06:05:06;5.50;;;3.53;;
64932;SDS011;51446;53.850;10.662;2023-11-21T06:07:32;5.60;;;4.10;;
64932;SDS011;51446;53.850;10.662;2023-11-21T06:09:57;7.13;;;3.90;;
64932;SDS011;51446;53.850;10.662;2023-11-21T06:12:23;4.83;;;4.20;;
64932;SDS011;51446;53.850;10.662;2023-11-21T06:14:48;4.70;;;4.20;;
64932;SDS011;51446;53.850;10.662;2023-11-21T06:17:13;5.27;;;4.07;;
64932;SDS011;51446;53.850;10.662;2023-11-21T06:19:39;5.87;;;4.43;;
64932;SDS011;51446;53.850;10.662;2023-11-21T06:22:04;5.53;;;4.18;;
64932;SDS011;51446;53.850;10.662;2023-11-21T06:24:30;5.38;;;4.07;;
64932;SDS011;51446;53.850;10.662;2023-11-21T06:26:56;6.57;;;4.43;;
64932;SDS011;51446;53.850;10.662;2023-11-21T06:29:21;8.63;;;4.57;;
64932;SDS011;51446;53.850;10.662;2023-11-21T06:31:46;4.90;;;4.37;;
64932;SDS011;51446;53.850;10.662;2023-11-21T06:34:12;8.63;;;4.55;;
64932;SDS011;51446;53.850;10.662;2023-11-21T06:36:38;7.17;;;4.43;;
64932;SDS011;51446;53.850;10.662;2023-11-21T06:39:03;5.60;;;4.50;;
64932;SDS011;51446;53.850;10.662;2023-11-21T06:41:33;6.60;;;4.50;;
64932;SDS011;51446;53.850;10.662;2023-11-21T06:43:59;8.32;;;4.47;;
64932;SDS011;51446;53.850;10.662;2023-11-21T06:46:24;5.43;;;4.37;;
64932;SDS011;51446;53.850;10.662;2023-11-21T06:48:50;9.37;;;4.40;;
64932;SDS011;51446;53.850;10.662;2023-11-21T06:51:15;7.30;;;4.50;;
64932;SDS011;51446;53.850;10.662;2023-11-21T06:53:40;6.07;;;4.20;;
64932;SDS011;51446;53.850;10.662;2023-11-21T06:56:14;5.77;;;4.03;;
64932;SDS011;51446;53.850;10.662;2023-11-21T06:58:40;5.20;;;4.20;;
64932;SDS011;51446;53.850;10.662;2023-11-21T07:01:06;5.43;;;4.60;;
64932;SDS011;51446;53.850;10.662;2023-11-21T07:03:31;6.13;;;4.40;;
64932;SDS011;51446;53.850;10.662;2023-11-21T07:05:56;6.18;;;3.97;;
64932;SDS011;51446;53.850;10.662;2023-11-21T07:08:22;8.43;;;4.30;;
64932;SDS011;51446;53.850;10.662;2023-11-21T07:10:47;5.30;;;3.73;;
64932;SDS011;51446;53.850;10.662;2023-11-21T07:13:12;5.47;;;3.93;;
64932;SDS011;51446;53.850;10.662;2023-11-21T07:15:38;4.20;;;3.67;;
64932;SDS011;51446;53.850;10.662;2023-11-21T07:18:03;4.60;;;3.90;;
64932;SDS011;51446;53.850;10.662;2023-11-21T07:20:28;5.30;;;3.60;;
64932;SDS011;51446;53.850;10.662;2023-11-21T07:22:55;5.47;;;3.75;;
64932;SDS011;51446;53.850;10.662;2023-11-21T07:25:21;8.33;;;3.70;;
64932;SDS011;51446;53.850;10.662;2023-11-21T07:27:47;5.72;;;3.20;;
64932;SDS011;51446;53.850;10.662;2023-11-21T07:30:12;4.53;;;3.60;;
64932;SDS011;51446;53.850;10.662;2023-11-21T07:32:38;7.85;;;3.70;;
64932;SDS011;51446;53.850;10.662;2023-11-21T07:35:04;8.73;;;4.20;;
64932;SDS011;51446;53.850;10.662;2023-11-21T07:37:30;5.10;;;3.87;;
64932;SDS011;51446;53.850;10.662;2023-11-21T07:39:55;5.10;;;3.43;;
64932;SDS011;51446;53.850;10.662;2023-11-21T07:42:23;4.32;;;3.70;;
64932;SDS011;51446;53.850;10.662;2023-11-21T07:44:51;7.10;;;4.30;;
64932;SDS011;51446;53.850;10.662;2023-11-21T07:47:17;4.93;;;3.60;;
64932;SDS011;51446;53.850;10.662;2023-11-21T07:49:42;4.77;;;3.40;;
64932;SDS011;51446;53.850;10.662;2023-11-21T07:52:09;6.03;;;3.80;;
64932;SDS011;51446;53.850;10.662;2023-11-21T07:54:34;4.43;;;3.60;;
64932;SDS011;51446;53.850;10.662;2023-11-21T07:57:00;5.17;;;3.67;;
64932;SDS011;51446;53.850;10.662;2023-11-21T07:59:26;4.82;;;3.47;;
64932;SDS011;51446;53.850;10.662;2023-11-21T08:01:51;5.33;;;3.97;;
64932;SDS011;51446;53.850;10.662;2023-11-21T08:04:16;3.97;;;3.53;;
64932;SDS011;51446;53.850;10.662;2023-11-21T08:06:42;5.50;;;3.90;;
64932;SDS011;51446;53.850;10.662;2023-11-21T08:09:07;4.20;;;3.73;;
64932;SDS011;51446;53.850;10.662;2023-11-21T08:11:33;5.67;;;4.60;;
64932;SDS011;51446;53.850;10.662;2023-11-21T08:13:58;5.20;;;3.95;;
64932;SDS011;51446;53.850;10.662;2023-11-21T08:16:24;9.47;;;5.07;;
64932;SDS011;51446;53.850;10.662;2023-11-21T08:18:50;5.70;;;4.60;;
64932;SDS011;51446;53.850;10.662;2023-11-21T08:21:15;7.50;;;4.30;;
64932;SDS011;51446;53.850;10.662;2023-11-21T08:23:40;6.73;;;4.60;;
64932;SDS011;51446;53.850;10.662;2023-11-21T08:26:05;5.60;;;4.20;;
64932;SDS011;51446;53.850;10.662;2023-11-21T08:28:31;7.30;;;4.37;;
64932;SDS011;51446;53.850;10.662;2023-11-21T08:30:56;5.50;;;4.60;;
64932;SDS011;51446;53.850;10.662;2023-11-21T08:33:21;7.30;;;4.83;;
64932;SDS011;51446;53.850;10.662;2023-11-21T08:35:47;6.20;;;4.03;;
64932;SDS011;51446;53.850;10.662;2023-11-21T08:38:12;6.53;;;4.63;;
64932;SDS011;51446;53.850;10.662;2023-11-21T08:40:38;9.40;;;4.90;;
64932;SDS011;51446;53.850;10.662;2023-11-21T08:43:03;8.23;;;4.57;;
64932;SDS011;51446;53.850;10.662;2023-11-21T08:45:32;6.47;;;4.38;;
64932;SDS011;51446;53.850;10.662;2023-11-21T08:47:59;7.37;;;5.00;;
64932;SDS011;51446;53.850;10.662;2023-11-21T08:50:27;6.70;;;4.50;;
64932;SDS011;51446;53.850;10.662;2023-11-21T08:52:53;8.55;;;4.43;;
64932;SDS011;51446;53.850;10.662;2023-11-21T08:55:18;5.50;;;3.97;;
64932;SDS011;51446;53.850;10.662;2023-11-21T08:57:45;10.07;;;4.17;;
64932;SDS011;51446;53.850;10.662;2023-11-21T09:00:11;8.85;;;5.07;;
64932;SDS011;51446;53.850;10.662;2023-11-21T09:02:38;9.13;;;4.40;;
64932;SDS011;51446;53.850;10.662;2023-11-21T09:05:05;7.97;;;4.97;;
64932;SDS011;51446;53.850;10.662;2023-11-21T09:07:31;7.40;;;4.88;;
64932;SDS011;51446;53.850;10.662;2023-11-21T09:09:56;5.47;;;4.27;;
64932;SDS011;51446;53.850;10.662;2023-11-21T09:12:21;10.97;;;5.67;;
64932;SDS011;51446;53.850;10.662;2023-11-21T09:14:46;8.10;;;5.20;;
64932;SDS011;51446;53.850;10.662;2023-11-21T09:17:12;16.40;;;8.20;;
64932;SDS011;51446;53.850;10.662;2023-11-21T09:19:37;6.67;;;4.17;;
64932;SDS011;51446;53.850;10.662;2023-11-21T09:22:03;4.80;;;4.30;;
64932;SDS011;51446;53.850;10.662;2023-11-21T09:24:30;6.23;;;4.20;;
64932;SDS011;51446;53.850;10.662;2023-11-21T09:26:55;4.72;;;4.25;;
64932;SDS011;51446;53.850;10.662;2023-11-21T09:29:20;7.60;;;4.43;;
64932;SDS011;51446;53.850;10.662;2023-11-21T09:31:47;4.53;;;3.80;;
64932;SDS011;51446;53.850;10.662;2023-11-21T09:34:12;5.50;;;4.50;;
64932;SDS011;51446;53.850;10.662;2023-11-21T09:36:38;6.40;;;4.20;;
64932;SDS011;51446;53.850;10.662;2023-11-21T09:39:04;7.45;;;3.97;;
64932;SDS011;51446;53.850;10.662;2023-11-21T09:41:34;5.50;;;4.20;;
64932;SDS011;51446;53.850;10.662;2023-11-21T09:44:08;6.10;;;4.13;;
64932;SDS011;51446;53.850;10.662;2023-11-21T09:46:38;5.53;;;4.27;;
64932;SDS011;51446;53.850;10.662;2023-11-21T09:49:06;4.78;;;3.72;;
64932;SDS011;51446;53.850;10.662;2023-11-21T09:51:37;5.28;;;4.13;;
64932;SDS011;51446;53.850;10.662;2023-11-21T09:54:07;11.18;;;6.35;;
64932;SDS011;51446;53.850;10.662;2023-11-21T09:56:35;8.85;;;4.40;;
64932;SDS011;51446;53.850;10.662;2023-11-21T09:59:01;5.20;;;4.20;;
64932;SDS011;51446;53.850;10.662;2023-11-21T10:01:32;7.78;;;5.03;;
64932;SDS011;51446;53.850;10.662;2023-11-21T10:04:00;21.50;;;12.70;;
64932;SDS011;51446;53.850;10.662;2023-11-21T10:06:26;8.47;;;6.17;;
64932;SDS011;51446;53.850;10.662;2023-11-21T10:08:52;8.25;;;4.45;;
64932;SDS011;51446;53.850;10.662;2023-11-21T10:11:18;9.75;;;5.28;;
64932;SDS011;51446;53.850;10.662;2023-11-21T10:13:44;10.07;;;4.50;;
64932;SDS011;51446;53.850;10.662;2023-11-21T10:16:11;4.28;;;3.88;;
64932;SDS011;51446;53.850;10.662;2023-11-21T10:18:41;5.65;;;3.70;;
64932;SDS011;51446;53.850;10.662;2023-11-21T10:21:07;4.33;;;3.50;;
64932;SDS011;51446;53.850;10.662;2023-11-21T10:23:34;5.97;;;3.88;;
64932;SDS011;51446;53.850;10.662;2023-11-21T10:25:59;4.20;;;3.63;;
64932;SDS011;51446;53.850;10.662;2023-11-21T10:28:25;4.97;;;3.92;;
64932;SDS011;51446;53.850;10.662;2023-11-21T10:30:50;4.93;;;4.03;;
64932;SDS011;51446;53.850;10.662;2023-11-21T10:33:16;6.80;;;3.97;;
64932;SDS011;51446;53.850;10.662;2023-11-21T10:38:06;5.60;;;3.83;;
64932;SDS011;51446;53.850;10.662;2023-11-21T10:40:37;7.68;;;4.30;;
64932;SDS011;51446;53.850;10.662;2023-11-21T10:43:07;6.10;;;4.68;;
64932;SDS011;51446;53.850;10.662;2023-11-21T10:45:38;5.68;;;4.55;;
64932;SDS011;51446;53.850;10.662;2023-11-21T10:48:07;5.85;;;4.72;;
64932;SDS011;51446;53.850;10.662;2023-11-21T10:50:34;8.40;;;4.57;;
64932;SDS011;51446;53.850;10.662;2023-11-21T10:53:01;6.95;;;4.28;;
64932;SDS011;51446;53.850;10.662;2023-11-21T10:55:28;7.85;;;5.25;;
64932;SDS011;51446;53.850;10.662;2023-11-21T10:57:54;12.87;;;4.70;;
64932;SDS011;51446;53.850;10.662;2023-11-21T11:00:22;8.00;;;4.50;;
64932;SDS011;51446;53.850;10.662;2023-11-21T11:02:51;6.75;;;4.40;;
64932;SDS011;51446;53.850;10.662;2023-11-21T11:05:19;6.88;;;4.10;;
64932;SDS011;51446;53.850;10.662;2023-11-21T11:07:47;8.35;;;4.10;;
64932;SDS011;51446;53.850;10.662;2023-11-21T11:10:19;8.37;;;4.67;;
64932;SDS011;51446;53.850;10.662;2023-11-21T11:12:47;8.40;;;4.57;;
64932;SDS011;51446;53.850;10.662;2023-11-21T11:15:13;6.60;;;4.85;;
64932;SDS011;51446;53.850;10.662;2023-11-21T11:17:40;8.02;;;4.70;;
64932;SDS011;51446;53.850;10.662;2023-11-21T11:20:07;4.85;;;3.97;;
64932;SDS011;51446;53.850;10.662;2023-11-21T11:22:57;5.70;;;4.40;;
64932;SDS011;51446;53.850;10.662;2023-11-21T11:28:10;8.95;;;4.85;;
64932;SDS011;51446;53.850;10.662;2023-11-21T11:33:39;5.68;;;3.90;;
64932;SDS011;51446;53.850;10.662;2023-11-21T11:36:10;12.43;;;4.60;;
64932;SDS011;51446;53.850;10.662;2023-11-21T11:38:45;5.63;;;4.15;;
64932;SDS011;51446;53.850;10.662;2023-11-21T11:41:10;6.53;;;4.30;;
64932;SDS011;51446;53.850;10.662;2023-11-21T11:43:36;9.93;;;4.80;;
64932;SDS011;51446;53.850;10.662;2023-11-21T11:46:09;9.52;;;4.72;;
64932;SDS011;51446;53.850;10.662;2023-11-21T11:48:38;8.00;;;4.87;;
64932;SDS011;51446;53.850;10.662;2023-11-21T11:51:05;6.25;;;5.13;;
64932;SDS011;51446;53.850;10.662;2023-11-21T11:53:38;8.38;;;4.25;;
64932;SDS011;51446;53.850;10.662;2023-11-21T11:58:53;8.13;;;4.55;;
64932;SDS011;51446;53.850;10.662;2023-11-21T12:01:20;6.93;;;4.03;;
64932;SDS011;51446;53.850;10.662;2023-11-21T12:06:59;6.93;;;4.00;;
64932;SDS011;51446;53.850;10.662;2023-11-21T12:09:27;5.18;;;3.63;;
64932;SDS011;51446;53.850;10.662;2023-11-21T12:11:54;5.32;;;3.80;;
64932;SDS011;51446;53.850;10.662;2023-11-21T12:14:21;5.32;;;4.05;;
64932;SDS011;51446;53.850;10.662;2023-11-21T12:16:48;6.03;;;3.90;;
64932;SDS011;51446;53.850;10.662;2023-11-21T12:19:13;4.88;;;3.58;;
64932;SDS011;51446;53.850;10.662;2023-11-21T12:21:39;6.35;;;3.40;;
64932;SDS011;51446;53.850;10.662;2023-11-21T12:24:09;3.90;;;3.30;;
64932;SDS011;51446;53.850;10.662;2023-11-21T12:26:34;4.33;;;3.93;;
64932;SDS011;51446;53.850;10.662;2023-11-21T12:29:03;4.88;;;3.50;;
64932;SDS011;51446;53.850;10.662;2023-11-21T12:31:29;4.07;;;3.63;;
64932;SDS011;51446;53.850;10.662;2023-11-21T12:33:55;5.57;;;4.13;;
64932;SDS011;51446;53.850;10.662;2023-11-21T12:36:22;5.70;;;3.90;;
64932;SDS011;51446;53.850;10.662;2023-11-21T12:38:48;7.53;;;3.90;;
64932;SDS011;51446;53.850;10.662;2023-11-21T12:41:13;6.17;;;3.90;;
64932;SDS011;51446;53.850;10.662;2023-11-21T12:43:40;4.32;;;3.63;;
64932;SDS011;51446;53.850;10.662;2023-11-21T12:46:09;4.90;;;3.30;;
64932;SDS011;51446;53.850;10.662;2023-11-21T12:48:38;7.25;;;3.97;;
64932;SDS011;51446;53.850;10.662;2023-11-21T12:51:12;4.35;;;3.75;;
64932;SDS011;51446;53.850;10.662;2023-11-21T12:53:41;6.95;;;3.42;;
64932;SDS011;51446;53.850;10.662;2023-11-21T12:56:09;4.63;;;3.60;;
64932;SDS011;51446;53.850;10.662;2023-11-21T12:58:36;4.28;;;3.03;;
64932;SDS011;51446;53.850;10.662;2023-11-21T13:01:04;5.13;;;3.25;;
64932;SDS011;51446;53.850;10.662;2023-11-21T13:03:29;3.90;;;3.30;;
64932;SDS011;51446;53.850;10.662;2023-11-21T13:05:55;6.53;;;3.95;;
64932;SDS011;51446;53.850;10.662;2023-11-21T13:08:22;4.75;;;3.42;;
64932;SDS011;51446;53.850;10.662;2023-11-21T13:10:49;3.78;;;3.40;;
64932;SDS011;51446;53.850;10.662;2023-11-21T13:13:16;6.15;;;3.70;;
64932;SDS011;51446;53.850;10.662;2023-11-21T13:15:49;4.43;;;3.40;;
64932;SDS011;51446;53.850;10.662;2023-11-21T13:18:16;6.37;;;3.70;;
64932;SDS011;51446;53.850;10.662;2023-11-21T13:20:42;6.57;;;3.50;;
64932;SDS011;51446;53.850;10.662;2023-11-21T13:23:08;4.72;;;3.40;;
64932;SDS011;51446;53.850;10.662;2023-11-21T13:25:36;6.00;;;3.65;;
64932;SDS011;51446;53.850;10.662;2023-11-21T13:28:03;4.25;;;3.40;;
64932;SDS011;51446;53.850;10.662;2023-11-21T13:30:29;6.10;;;3.73;;
64932;SDS011;51446;53.850;10.662;2023-11-21T13:33:01;3.45;;;3.08;;
64932;SDS011;51446;53.850;10.662;2023-11-21T13:35:30;5.00;;;3.27;;
64932;SDS011;51446;53.850;10.662;2023-11-21T13:38:02;7.20;;;3.53;;
64932;SDS011;51446;53.850;10.662;2023-11-21T13:40:38;5.50;;;3.95;;
64932;SDS011;51446;53.850;10.662;2023-11-21T13:43:09;5.97;;;3.33;;
64932;SDS011;51446;53.850;10.662;2023-11-21T13:45:41;5.10;;;3.60;;
64932;SDS011;51446;53.850;10.662;2023-11-21T13:48:08;4.68;;;3.35;;
64932;SDS011;51446;53.850;10.662;2023-11-21T13:50:44;7.18;;;3.58;;
64932;SDS011;51446;53.850;10.662;2023-11-21T13:53:20;5.75;;;3.47;;
64932;SDS011;51446;53.850;10.662;2023-11-21T13:55:48;3.87;;;3.20;;
64932;SDS011;51446;53.850;10.662;2023-11-21T13:58:14;6.13;;;3.75;;
64932;SDS011;51446;53.850;10.662;2023-11-21T14:00:47;3.47;;;2.88;;
64932;SDS011;51446;53.850;10.662;2023-11-21T14:03:21;4.43;;;2.80;;
64932;SDS011;51446;53.850;10.662;2023-11-21T14:05:48;4.22;;;2.72;;
64932;SDS011;51446;53.850;10.662;2023-11-21T14:08:17;4.13;;;2.90;;
64932;SDS011;51446;53.850;10.662;2023-11-21T14:10:47;4.22;;;2.63;;
64932;SDS011;51446;53.850;10.662;2023-11-21T14:13:18;6.50;;;3.00;;
64932;SDS011;51446;53.850;10.662;2023-11-21T14:15:45;3.78;;;2.85;;
64932;SDS011;51446;53.850;10.662;2023-11-21T14:18:11;4.35;;;2.65;;
64932;SDS011;51446;53.850;10.662;2023-11-21T14:20:39;5.73;;;3.03;;
64932;SDS011;51446;53.850;10.662;2023-11-21T14:23:06;3.45;;;3.08;;
64932;SDS011;51446;53.850;10.662;2023-11-21T14:25:34;4.22;;;2.95;;
64932;SDS011;51446;53.850;10.662;2023-11-21T14:28:04;3.10;;;2.65;;
64932;SDS011;51446;53.850;10.662;2023-11-21T14:30:31;6.38;;;3.45;;
64932;SDS011;51446;53.850;10.662;2023-11-21T14:32:58;5.23;;;3.20;;
64932;SDS011;51446;53.850;10.662;2023-11-21T14:35:23;5.65;;;2.70;;
64932;SDS011;51446;53.850;10.662;2023-11-21T14:37:49;2.93;;;2.53;;
64932;SDS011;51446;53.850;10.662;2023-11-21T14:40:14;4.17;;;3.00;;
64932;SDS011;51446;53.850;10.662;2023-11-21T14:42:41;4.30;;;3.17;;
64932;SDS011;51446;53.850;10.662;2023-11-21T14:45:07;4.22;;;3.38;;